Time;durP1;ratioP1;P1;durP2;ratioP2;P2;SDS_P1;SDS_P2;PMS_P1;PMS_P2;Temp;Humidity;BMP_temperature;BMP_pressure;BME280_temperature;BME280_humidity;BME280_pressure;Samples;Min_cycle;Max_cycle;Signal;HPM_P1;HPM_P2
2021/04/29 00:01:42;;;;;;;12.88;10.88;;;;;;;5.69;56.33;99736.59;1695886;83;21695;-75
2021/04/29 00:04:10;;;;;;;16.17;13.28;;;;;;;5.70;56.31;99743.54;1696546;83;21618;-75
2021/04/29 00:06:38;;;;;;;21.90;19.32;;;;;;;5.68;56.33;99744.06;1700346;83;21191;-74
2021/04/29 00:09:06;;;;;;;21.82;19.42;;;;;;;5.66;56.42;99737.20;1694509;85;21359;-74
2021/04/29 00:11:34;;;;;;;23.90;18.77;;;;;;;5.63;56.54;99734.27;1718287;83;21305;-74
2021/04/29 00:14:01;;;;;;;19.75;17.35;;;;;;;5.60;56.57;99747.55;1723480;83;21584;-74
2021/04/29 00:16:29;;;;;;;16.20;12.93;;;;;;;5.58;56.65;99740.20;1676482;83;21277;-74
2021/04/29 00:18:57;;;;;;;11.73;9.13;;;;;;;5.55;56.91;99738.59;1694501;85;21807;-74
2021/04/29 00:21:25;;;;;;;10.18;8.00;;;;;;;5.51;56.97;99737.48;1712656;83;21186;-74
2021/04/29 00:23:52;;;;;;;10.18;7.25;;;;;;;5.48;57.14;99738.97;1698858;83;21164;-75
2021/04/29 00:26:19;;;;;;;10.85;7.58;;;;;;;5.43;57.14;99731.79;1721809;83;21760;-75
2021/04/29 00:28:46;;;;;;;8.85;7.05;;;;;;;5.39;57.27;99735.02;1721126;83;21163;-75
2021/04/29 00:31:14;;;;;;;7.87;6.15;;;;;;;5.38;57.42;99734.63;1720250;83;21215;-75
2021/04/29 00:33:41;;;;;;;7.83;5.75;;;;;;;5.35;57.49;99734.31;1709776;84;21328;-74
2021/04/29 00:36:09;;;;;;;8.20;6.10;;;;;;;5.31;57.67;99739.33;1707882;84;21537;-74
2021/04/29 00:38:36;;;;;;;9.00;6.95;;;;;;;5.27;57.72;99740.41;1709545;84;21167;-74
2021/04/29 00:41:03;;;;;;;8.45;6.42;;;;;;;5.23;57.96;99731.84;1703330;84;21286;-74
2021/04/29 00:43:32;;;;;;;11.70;7.05;;;;;;;5.18;58.04;99733.83;1707595;84;21588;-74
2021/04/29 00:45:59;;;;;;;9.28;6.20;;;;;;;5.13;58.19;99731.90;1695339;84;21143;-74
2021/04/29 00:48:26;;;;;;;8.23;6.08;;;;;;;5.09;58.34;99731.66;1694588;84;21211;-75
2021/04/29 00:50:56;;;;;;;9.00;6.42;;;;;;;5.02;58.46;99725.84;1682914;85;21195;-74
2021/04/29 00:53:41;;;;;;;8.90;6.72;;;;;;;4.99;58.57;99726.00;1688427;84;21127;-74
2021/04/29 00:56:09;;;;;;;10.68;7.33;;;;;;;4.95;58.69;99724.45;1707515;84;21144;-74
2021/04/29 00:58:38;;;;;;;10.03;8.03;;;;;;;4.94;58.80;99730.61;1689994;84;21619;-74
2021/04/29 01:01:06;;;;;;;12.58;7.33;;;;;;;4.97;58.84;99723.06;1684259;84;21535;-74
2021/04/29 01:03:43;;;;;;;10.60;7.62;;;;;;;4.96;58.87;99727.44;1706745;84;21163;-73
2021/04/29 01:06:14;;;;;;;9.13;6.35;;;;;;;5.03;58.79;99728.02;1683028;84;21135;-73
2021/04/29 01:09:09;;;;;;;7.80;5.92;;;;;;;5.22;58.52;99731.92;1695203;84;21155;-73
2021/04/29 01:11:39;;;;;;;9.90;5.97;;;;;;;5.22;58.58;99726.67;1709808;83;21167;-74
2021/04/29 01:14:06;;;;;;;9.73;6.35;;;;;;;5.14;58.75;99734.05;1689991;84;21183;-74
2021/04/29 01:16:34;;;;;;;9.18;6.50;;;;;;;5.05;58.91;99725.71;1709757;82;21171;-74
2021/04/29 01:19:01;;;;;;;9.68;6.20;;;;;;;5.01;59.08;99718.92;1709347;82;21536;-74
2021/04/29 01:21:29;;;;;;;8.95;7.08;;;;;;;4.97;59.18;99719.97;1709798;84;21148;-74
2021/04/29 01:24:07;;;;;;;10.85;7.58;;;;;;;4.95;59.25;99721.83;1661376;85;21171;-73
2021/04/29 01:26:55;;;;;;;9.58;6.95;;;;;;;4.93;59.33;99714.49;1708673;84;21805;-74
2021/04/29 01:29:29;;;;;;;8.48;6.58;;;;;;;4.91;59.38;99718.95;1681655;84;21190;-73
2021/04/29 01:31:58;;;;;;;10.05;7.37;;;;;;;4.88;59.49;99721.25;1676582;84;21673;-74
2021/04/29 01:34:31;;;;;;;7.70;6.37;;;;;;;4.85;59.59;99725.81;1662029;86;21198;-74
2021/04/29 01:36:58;;;;;;;11.25;7.35;;;;;;;4.81;59.73;99716.38;1662263;86;21637;-74
2021/04/29 01:39:26;;;;;;;8.85;6.85;;;;;;;4.76;59.83;99720.06;1673574;84;21163;-74
2021/04/29 01:41:54;;;;;;;13.30;7.95;;;;;;;4.74;59.94;99721.92;1676429;85;21327;-74
2021/04/29 01:44:23;;;;;;;10.80;7.00;;;;;;;4.72;60.10;99722.92;1677388;84;21301;-74
2021/04/29 01:46:52;;;;;;;12.60;7.90;;;;;;;4.68;60.20;99720.03;1681286;85;21608;-74
2021/04/29 01:49:22;;;;;;;9.55;6.87;;;;;;;4.66;60.33;99723.20;1687988;84;21273;-74
2021/04/29 01:51:51;;;;;;;10.03;6.70;;;;;;;4.65;60.38;99724.95;1709901;84;21171;-74
2021/04/29 01:54:20;;;;;;;10.10;7.20;;;;;;;4.64;60.47;99725.87;1690033;84;21179;-74
2021/04/29 01:56:49;;;;;;;8.75;6.90;;;;;;;4.62;60.49;99725.11;1696606;84;21120;-75
2021/04/29 01:59:16;;;;;;;10.05;7.37;;;;;;;4.74;60.32;99725.86;1701933;84;21579;-75
2021/04/29 02:01:44;;;;;;;8.98;6.67;;;;;;;4.86;60.10;99724.87;1703639;84;21277;-75
2021/04/29 02:04:13;;;;;;;10.05;7.53;;;;;;;4.82;60.24;99727.25;1709845;84;21204;-74
2021/04/29 02:06:45;;;;;;;11.68;8.05;;;;;;;4.74;60.37;99725.86;1686616;84;21183;-74
2021/04/29 02:09:12;;;;;;;10.13;7.80;;;;;;;4.70;60.52;99729.52;1684677;84;21341;-74
2021/04/29 02:11:59;;;;;;;9.80;7.50;;;;;;;4.66;60.65;99731.89;1690815;84;21172;-74
2021/04/29 02:14:46;;;;;;;10.65;7.87;;;;;;;4.64;60.75;99731.10;1687165;84;21187;-73
2021/04/29 02:17:28;;;;;;;10.85;8.38;;;;;;;4.60;60.83;99732.17;1681577;84;21671;-73
2021/04/29 02:19:56;;;;;;;10.58;7.85;;;;;;;4.57;60.92;99732.33;1687954;84;21285;-73
2021/04/29 02:22:25;;;;;;;11.10;8.23;;;;;;;4.52;61.04;99734.31;1711587;84;21325;-73
2021/04/29 02:24:54;;;;;;;9.95;7.70;;;;;;;4.48;61.21;99733.59;1710021;84;21183;-73
2021/04/29 02:27:22;;;;;;;9.70;7.40;;;;;;;4.45;61.32;99735.49;1709787;84;21164;-73
2021/04/29 02:29:49;;;;;;;11.60;8.30;;;;;;;4.40;61.44;99731.32;1707669;84;21342;-73
2021/04/29 02:32:17;;;;;;;13.15;7.30;;;;;;;4.43;61.41;99731.64;1709864;83;21197;-73
2021/04/29 02:34:45;;;;;;;10.18;8.15;;;;;;;4.64;61.20;99738.12;1709728;84;21164;-74
2021/04/29 02:37:13;;;;;;;11.60;8.28;;;;;;;4.65;61.19;99739.36;1709824;84;21167;-74
2021/04/29 02:39:40;;;;;;;11.10;8.63;;;;;;;4.61;61.31;99743.05;1709107;84;21219;-74
2021/04/29 02:42:08;;;;;;;10.23;7.28;;;;;;;4.57;61.38;99741.50;1706091;84;21171;-74
2021/04/29 02:44:36;;;;;;;9.73;7.70;;;;;;;4.51;61.51;99741.77;1709602;84;21318;-74
2021/04/29 02:47:04;;;;;;;11.88;8.20;;;;;;;4.46;61.68;99738.51;1709671;84;21203;-74
2021/04/29 02:49:32;;;;;;;12.60;9.30;;;;;;;4.41;61.79;99731.72;1691994;84;21302;-74
2021/04/29 02:52:00;;;;;;;8.93;7.28;;;;;;;4.41;61.88;99740.88;1697405;84;21179;-74
2021/04/29 02:54:30;;;;;;;11.88;7.90;;;;;;;4.35;61.88;99722.83;1709539;84;21187;-74
2021/04/29 02:56:57;;;;;;;11.10;7.97;;;;;;;4.37;62.04;99735.40;1709597;84;21163;-74
2021/04/29 02:59:25;;;;;;;10.63;7.65;;;;;;;4.34;62.19;99731.59;1690011;84;21167;-74
2021/04/29 03:01:52;;;;;;;11.97;8.80;;;;;;;4.31;62.43;99736.98;1688989;84;21139;-75
2021/04/29 03:04:19;;;;;;;12.13;8.50;;;;;;;4.32;62.53;99732.11;1681214;85;21207;-74
2021/04/29 03:06:47;;;;;;;12.88;8.50;;;;;;;4.50;62.27;99736.13;1681322;84;21661;-74
2021/04/29 03:09:15;;;;;;;10.95;8.68;;;;;;;4.63;62.13;99732.05;1681186;85;21349;-75
2021/04/29 03:11:43;;;;;;;13.25;8.58;;;;;;;4.67;62.18;99732.77;1678546;84;21334;-74
2021/04/29 03:14:11;;;;;;;12.28;9.10;;;;;;;4.87;62.12;99737.05;1709671;84;21172;-74
2021/04/29 03:16:40;;;;;;;13.20;9.13;;;;;;;5.14;61.57;99735.36;1709604;82;21236;-74
2021/04/29 03:19:10;;;;;;;14.05;9.73;;;;;;;5.35;61.03;99735.63;1709882;84;21207;-74
2021/04/29 03:21:37;;;;;;;11.97;8.73;;;;;;;5.57;60.56;99742.44;1694264;84;21671;-74
2021/04/29 03:24:07;;;;;;;14.55;9.55;;;;;;;5.82;59.99;99745.12;1681355;85;21168;-74
2021/04/29 03:26:34;;;;;;;15.13;10.43;;;;;;;6.08;59.44;99737.75;1681394;85;21221;-74
2021/04/29 03:29:02;;;;;;;15.23;10.30;;;;;;;6.30;58.76;99740.92;1681231;85;21226;-74
2021/04/29 03:31:30;;;;;;;14.73;10.55;;;;;;;6.28;58.49;99734.93;1695209;84;21183;-74
2021/04/29 03:34:00;;;;;;;11.30;8.95;;;;;;;6.29;58.63;99743.20;1709644;83;21220;-74
2021/04/29 03:36:27;;;;;;;12.18;8.65;;;;;;;6.65;58.08;99738.21;1710006;84;21318;-74
2021/04/29 03:38:54;;;;;;;13.38;9.25;;;;;;;7.14;57.13;99737.75;1689669;84;21174;-74
2021/04/29 03:41:21;;;;;;;13.85;10.18;;;;;;;7.63;56.16;99744.13;1709663;84;21143;-74
2021/04/29 03:43:49;;;;;;;12.33;9.50;;;;;;;8.06;55.21;99728.91;1710079;84;21156;-75
2021/04/29 03:47:38;;;;;;;9.65;7.78;;;;;;;8.59;53.66;99743.70;1902775;74;23304;-74
2021/04/29 03:50:06;;;;;;;10.75;8.38;;;;;;;8.57;53.50;99735.06;1813790;78;21194;-74
2021/04/29 03:52:34;;;;;;;9.93;7.58;;;;;;;8.53;53.43;99742.30;1771838;80;21168;-74
2021/04/29 03:55:01;;;;;;;11.38;8.90;;;;;;;8.57;53.21;99745.61;1773287;80;21195;-75
2021/04/29 03:57:28;;;;;;;11.83;7.78;;;;;;;8.61;53.12;99737.88;1772574;79;21180;-74
2021/04/29 03:59:55;;;;;;;9.78;7.17;;;;;;;8.56;53.21;99730.72;1773086;79;21182;-76
2021/04/29 04:02:22;;;;;;;12.82;8.88;;;;;;;8.72;52.96;99730.62;1789625;79;21568;-75
2021/04/29 04:04:50;;;;;;;9.48;7.35;;;;;;;9.09;52.60;99735.33;1801238;78;21185;-75
2021/04/29 04:07:17;;;;;;;10.03;7.65;;;;;;;9.54;51.53;99742.98;1757323;80;21172;-76
2021/04/29 04:09:45;;;;;;;10.28;8.73;;;;;;;9.99;50.04;99735.08;1763930;80;21315;-76
2021/04/29 04:12:12;;;;;;;11.55;8.43;;;;;;;10.03;49.86;99740.17;1753907;81;21193;-76
2021/04/29 04:14:40;;;;;;;9.78;7.37;;;;;;;9.77;50.34;99734.84;1756805;81;21202;-75
2021/04/29 04:17:09;;;;;;;11.70;8.40;;;;;;;9.58;50.56;99731.26;1753536;81;21174;-75
2021/04/29 04:19:36;;;;;;;13.03;8.88;;;;;;;9.35;51.04;99742.40;1771045;80;21348;-75
2021/04/29 04:22:05;;;;;;;10.90;7.75;;;;;;;9.20;51.67;99736.80;1786629;79;21181;-76
2021/04/29 04:24:33;;;;;;;11.25;8.20;;;;;;;9.29;51.66;99733.56;1817203;78;21178;-76
2021/04/29 04:27:00;;;;;;;13.22;8.38;;;;;;;9.40;51.43;99738.15;1788086;80;21178;-75
2021/04/29 04:29:29;;;;;;;9.80;8.25;;;;;;;9.52;51.18;99728.56;1800862;78;21307;-76
2021/04/29 04:31:57;;;;;;;10.95;7.72;;;;;;;9.63;50.91;99731.34;1804329;79;21625;-75
2021/04/29 04:34:24;;;;;;;12.05;7.30;;;;;;;9.79;50.75;99727.18;1806098;79;21190;-75
2021/04/29 04:36:51;;;;;;;10.40;7.65;;;;;;;9.80;50.71;99731.52;1774113;79;21161;-74
2021/04/29 04:39:18;;;;;;;10.80;7.47;;;;;;;9.77;51.00;99736.16;1790230;79;21248;-75
2021/04/29 04:41:45;;;;;;;9.23;7.30;;;;;;;9.76;51.21;99734.00;1773720;79;21169;-74
2021/04/29 04:44:14;;;;;;;9.73;7.12;;;;;;;9.74;51.23;99733.73;1744763;81;21205;-76
2021/04/29 04:46:42;;;;;;;10.10;8.08;;;;;;;9.65;51.39;99733.42;1773409;80;21328;-75
2021/04/29 04:49:09;;;;;;;21.87;7.85;;;;;;;9.59;51.57;99735.14;1772794;79;21169;-74
2021/04/29 04:51:37;;;;;;;10.28;7.42;;;;;;;9.54;51.58;99737.24;1796571;79;21606;-75
2021/04/29 04:54:04;;;;;;;13.03;7.50;;;;;;;9.45;51.70;99741.78;1805068;78;21201;-74
2021/04/29 04:56:33;;;;;;;21.20;15.80;;;;;;;9.32;52.14;99730.73;1804440;78;21592;-74
2021/04/29 04:59:00;;;;;;;22.82;14.18;;;;;;;9.23;52.44;99745.83;1796280;79;21789;-73
2021/04/29 05:01:28;;;;;;;9.40;7.28;;;;;;;9.21;52.63;99737.64;1805352;79;21185;-74
2021/04/29 05:03:57;;;;;;;8.98;7.25;;;;;;;9.15;52.86;99733.62;1785783;79;21142;-74
2021/04/29 05:06:26;;;;;;;10.28;7.80;;;;;;;9.10;53.18;99747.09;1788391;79;21173;-74
2021/04/29 05:08:54;;;;;;;13.68;8.08;;;;;;;9.05;53.32;99736.48;1778944;79;21214;-73
2021/04/29 05:11:21;;;;;;;23.07;8.80;;;;;;;9.00;53.72;99738.95;1797639;79;21319;-73
2021/04/29 05:13:51;;;;;;;15.45;8.38;;;;;;;8.93;53.84;99736.31;1796344;79;21129;-74
2021/04/29 05:16:20;;;;;;;13.35;8.25;;;;;;;8.88;54.01;99735.76;1779572;79;21305;-73
2021/04/29 05:18:48;;;;;;;11.33;8.38;;;;;;;8.86;54.11;99749.50;1773073;80;21666;-74
2021/04/29 05:21:15;;;;;;;14.35;9.15;;;;;;;8.84;54.61;99743.50;1772094;80;21122;-75
2021/04/29 05:23:46;;;;;;;22.15;15.68;;;;;;;8.84;54.69;99744.81;1793097;79;21153;-74
2021/04/29 05:26:13;;;;;;;17.30;11.97;;;;;;;8.86;54.63;99746.87;1793707;79;21629;-75
2021/04/29 05:28:42;;;;;;;18.57;10.48;;;;;;;8.85;54.59;99747.83;1803428;78;21323;-75
2021/04/29 05:31:11;;;;;;;14.33;10.72;;;;;;;8.82;55.01;99744.92;1783416;79;21269;-73
2021/04/29 05:33:38;;;;;;;14.07;10.45;;;;;;;8.85;55.09;99738.12;1785896;79;21562;-74
2021/04/29 05:36:06;;;;;;;63.48;12.88;;;;;;;8.88;54.76;99749.43;1782964;79;21157;-74
2021/04/29 05:38:33;;;;;;;34.13;12.35;;;;;;;8.87;54.93;99755.16;1779230;79;21185;-74
2021/04/29 05:41:00;;;;;;;18.45;10.20;;;;;;;8.90;55.01;99755.44;1775578;79;21181;-73
2021/04/29 05:43:31;;;;;;;15.93;10.03;;;;;;;8.87;54.99;99753.84;1798836;79;21303;-79
2021/04/29 05:45:58;;;;;;;16.93;11.65;;;;;;;8.88;55.43;99752.91;1775601;79;21172;-74
2021/04/29 05:48:25;;;;;;;13.03;9.98;;;;;;;8.97;55.29;99749.67;1802046;78;21170;-74
2021/04/29 05:50:53;;;;;;;13.70;9.60;;;;;;;9.01;55.14;99745.92;1800073;78;21153;-74
2021/04/29 05:53:20;;;;;;;13.58;9.68;;;;;;;9.02;55.29;99749.39;1790745;79;21206;-75
2021/04/29 05:55:47;;;;;;;24.85;9.90;;;;;;;9.00;55.18;99749.50;1784541;79;21139;-74
2021/04/29 05:58:14;;;;;;;12.98;9.80;;;;;;;9.08;55.38;99750.78;1796289;78;21189;-75
2021/04/29 06:00:42;;;;;;;11.10;9.33;;;;;;;9.16;55.23;99743.23;1801311;78;21131;-74
2021/04/29 06:03:09;;;;;;;12.15;9.18;;;;;;;9.22;55.45;99746.80;1800995;79;21582;-74
2021/04/29 06:05:36;;;;;;;12.37;9.75;;;;;;;9.36;55.30;99743.27;1794033;78;21157;-74
2021/04/29 06:08:05;;;;;;;14.70;11.63;;;;;;;9.54;54.96;99747.80;1776875;79;21886;-74
2021/04/29 06:10:33;;;;;;;15.53;11.12;;;;;;;9.72;54.75;99740.45;1782839;78;21126;-73
2021/04/29 06:13:02;;;;;;;12.37;10.18;;;;;;;9.86;54.39;99744.80;1798613;79;21643;-72
2021/04/29 06:15:29;;;;;;;17.40;11.22;;;;;;;10.02;55.08;99747.72;1775940;79;21134;-75
2021/04/29 06:17:56;;;;;;;13.20;10.50;;;;;;;10.14;54.72;99747.73;1770416;79;21351;-74
2021/04/29 06:20:24;;;;;;;10.93;9.28;;;;;;;10.21;54.52;99752.59;1797872;79;21328;-76
2021/04/29 06:22:53;;;;;;;28.27;11.00;;;;;;;10.28;54.37;99745.45;1802084;78;21209;-75
2021/04/29 06:25:23;;;;;;;16.70;10.60;;;;;;;10.41;54.48;99750.77;1794359;79;21319;-75
2021/04/29 06:27:51;;;;;;;12.93;10.30;;;;;;;10.57;54.40;99742.59;1776242;79;21185;-74
2021/04/29 06:30:19;;;;;;;11.22;8.95;;;;;;;10.76;54.30;99749.23;1771977;80;21189;-73
2021/04/29 06:32:46;;;;;;;13.45;9.43;;;;;;;10.92;53.55;99760.42;1800144;78;21157;-74
2021/04/29 06:35:14;;;;;;;11.65;9.18;;;;;;;10.96;53.02;99759.23;1789977;79;21232;-73
2021/04/29 06:37:42;;;;;;;15.50;9.33;;;;;;;11.02;53.21;99755.78;1786279;79;21161;-74
2021/04/29 06:40:14;;;;;;;12.93;9.83;;;;;;;11.10;52.99;99752.09;1792722;79;21210;-73
2021/04/29 06:42:42;;;;;;;11.00;9.13;;;;;;;11.18;52.82;99755.04;1754571;79;21156;-74
2021/04/29 06:45:12;;;;;;;11.65;9.35;;;;;;;11.28;52.65;99753.41;1783994;79;21173;-74
2021/04/29 06:47:39;;;;;;;13.43;10.10;;;;;;;11.39;52.78;99752.60;1789374;78;21145;-74
2021/04/29 06:50:10;;;;;;;15.68;9.45;;;;;;;11.56;52.53;99747.86;1771037;80;21327;-74
2021/04/29 06:52:38;;;;;;;11.28;9.93;;;;;;;11.70;52.20;99746.83;1774999;79;21617;-74
2021/04/29 06:55:09;;;;;;;12.95;9.18;;;;;;;11.85;51.77;99743.02;1782365;79;21161;-73
2021/04/29 06:57:37;;;;;;;15.35;10.18;;;;;;;12.08;51.28;99741.78;1797271;78;21173;-73
2021/04/29 07:00:06;;;;;;;12.13;9.00;;;;;;;12.26;51.02;99739.05;1786575;79;22402;-74
2021/04/29 07:02:33;;;;;;;10.65;8.33;;;;;;;12.38;50.64;99740.36;1770034;80;21605;-74
2021/04/29 07:05:04;;;;;;;13.03;9.68;;;;;;;12.51;50.38;99736.30;1798544;79;21225;-74
2021/04/29 07:07:31;;;;;;;30.70;10.65;;;;;;;12.68;50.27;99737.11;1801363;78;21150;-74
2021/04/29 07:09:58;;;;;;;11.80;8.60;;;;;;;12.82;49.64;99739.99;1789812;78;21161;-75
2021/04/29 07:12:28;;;;;;;9.50;7.87;;;;;;;12.99;49.28;99735.14;1781404;79;21133;-74
2021/04/29 07:14:55;;;;;;;33.98;8.88;;;;;;;13.21;48.41;99733.77;1784405;79;21810;-74
2021/04/29 07:17:22;;;;;;;9.93;7.78;;;;;;;13.21;48.41;99733.77;1795639;79;21312;-74
2021/04/29 07:19:50;;;;;;;11.70;8.38;;;;;;;13.51;48.36;99744.69;1783462;78;21205;-74
2021/04/29 07:22:17;;;;;;;9.08;7.45;;;;;;;13.51;48.36;99744.69;1790884;78;21273;-74
2021/04/29 07:24:47;;;;;;;16.10;7.47;;;;;;;13.67;47.56;99745.09;1781266;78;21197;-74
2021/04/29 07:27:15;;;;;;;10.30;6.50;;;;;;;13.81;45.49;99729.80;1777034;80;21151;-74
2021/04/29 07:29:44;;;;;;;10.80;7.40;;;;;;;13.81;45.49;99729.80;1764522;80;21198;-74
2021/04/29 07:32:11;;;;;;;17.05;8.33;;;;;;;13.81;45.73;99727.14;1762659;80;21271;-74
2021/04/29 07:34:39;;;;;;;15.85;7.08;;;;;;;13.84;45.35;99730.88;1782585;80;21376;-75
2021/04/29 07:37:07;;;;;;;10.25;6.40;;;;;;;13.84;45.48;99720.25;1773082;80;21175;-74
2021/04/29 07:39:36;;;;;;;14.20;7.42;;;;;;;13.79;45.09;99725.94;1770293;80;21629;-75
2021/04/29 07:42:04;;;;;;;10.28;7.05;;;;;;;13.74;45.60;99726.81;1806940;78;21163;-75
2021/04/29 07:44:31;;;;;;;8.05;6.65;;;;;;;13.73;45.63;99727.78;1805249;79;21635;-76
2021/04/29 07:47:00;;;;;;;16.27;6.33;;;;;;;13.72;44.82;99732.27;1792942;78;21133;-73
2021/04/29 07:49:30;;;;;;;7.60;6.00;;;;;;;13.72;45.77;99728.75;1782321;78;21578;-74
2021/04/29 07:51:57;;;;;;;11.20;7.00;;;;;;;13.75;45.25;99721.86;1768005;80;21198;-73
2021/04/29 07:54:24;;;;;;;27.60;8.23;;;;;;;13.80;45.34;99721.45;1762187;80;21115;-74
2021/04/29 07:56:55;;;;;;;10.70;6.85;;;;;;;13.92;46.68;99723.91;1770558;80;21166;-74
2021/04/29 07:59:22;;;;;;;9.35;5.67;;;;;;;14.21;45.97;99712.61;1758951;81;21203;-74
2021/04/29 08:01:50;;;;;;;10.88;6.37;;;;;;;14.38;43.92;99720.95;1784826;79;21717;-74
2021/04/29 08:04:17;;;;;;;12.00;6.12;;;;;;;14.32;44.42;99708.19;1794801;78;21349;-74
2021/04/29 08:06:47;;;;;;;13.05;6.40;;;;;;;14.26;44.79;99707.73;1814464;79;21118;-75
2021/04/29 08:09:14;;;;;;;8.93;6.55;;;;;;;14.24;44.36;99705.69;1797235;79;21210;-74
2021/04/29 08:11:44;;;;;;;11.90;6.45;;;;;;;14.15;45.06;99697.18;1788538;78;21198;-73
2021/04/29 08:14:11;;;;;;;9.68;5.55;;;;;;;14.14;44.75;99696.82;1790854;78;21179;-74
2021/04/29 08:16:39;;;;;;;10.53;6.80;;;;;;;14.08;44.75;99704.02;1772507;78;21189;-74
2021/04/29 08:19:08;;;;;;;11.50;6.47;;;;;;;14.07;45.38;99701.00;1799540;78;21296;-74
2021/04/29 08:21:37;;;;;;;9.23;5.47;;;;;;;14.19;45.17;99701.75;1797930;79;21284;-74
2021/04/29 08:24:05;;;;;;;8.90;5.53;;;;;;;14.37;44.36;99697.98;1809972;79;21626;-74
2021/04/29 08:26:32;;;;;;;8.78;5.78;;;;;;;14.50;44.04;99693.28;1783724;80;21499;-74
2021/04/29 08:29:01;;;;;;;9.23;5.58;;;;;;;14.63;43.26;99689.52;1776510;80;21783;-74
2021/04/29 08:31:28;;;;;;;9.05;5.80;;;;;;;14.63;42.93;99689.05;1762799;78;21626;-74
2021/04/29 08:33:55;;;;;;;8.70;6.00;;;;;;;14.60;43.34;99693.30;1821334;77;21178;-74
2021/04/29 08:36:23;;;;;;;9.75;6.62;;;;;;;14.57;43.59;99683.77;1810819;78;21155;-74
2021/04/29 08:38:50;;;;;;;13.20;5.92;;;;;;;14.60;43.92;99677.33;1806060;78;21177;-74
2021/04/29 08:41:19;;;;;;;9.85;5.45;;;;;;;14.69;43.45;99683.70;1794004;78;21284;-73
2021/04/29 08:43:48;;;;;;;14.68;6.30;;;;;;;14.77;43.45;99690.53;1810064;79;21610;-73
2021/04/29 08:46:15;;;;;;;10.40;7.12;;;;;;;14.81;43.42;99677.29;1795418;78;21296;-73
2021/04/29 08:48:44;;;;;;;28.17;7.08;;;;;;;14.90;44.03;99681.78;1799006;78;21190;-73
2021/04/29 08:51:12;;;;;;;11.48;6.58;;;;;;;15.13;43.16;99677.54;1786222;78;22190;-74
2021/04/29 08:53:41;;;;;;;10.08;6.20;;;;;;;15.32;42.53;99682.03;1767854;79;21634;-75
2021/04/29 08:56:08;;;;;;;24.43;7.40;;;;;;;15.46;42.24;99668.78;1770198;80;21213;-74
2021/04/29 08:58:35;;;;;;;15.53;6.90;;;;;;;15.58;42.23;99668.63;1786299;80;21321;-74
2021/04/29 09:01:04;;;;;;;11.40;6.20;;;;;;;15.66;42.26;99655.42;1779877;78;21179;-74
2021/04/29 09:03:34;;;;;;;8.70;5.80;;;;;;;15.68;41.23;99664.13;1792446;78;21594;-75
2021/04/29 09:06:06;;;;;;;8.90;6.25;;;;;;;15.64;41.33;99661.38;1814650;77;21205;-75
2021/04/29 09:08:37;;;;;;;14.03;6.12;;;;;;;15.59;41.13;99644.97;1792651;78;21204;-73
2021/04/29 09:11:13;;;;;;;7.62;5.30;;;;;;;15.47;40.66;99646.45;1808783;77;21202;-73
2021/04/29 09:14:00;;;;;;;36.58;8.08;;;;;;;15.43;41.17;99645.06;1803800;78;21721;-74
2021/04/29 09:16:43;;;;;;;8.90;5.00;;;;;;;15.45;41.20;99645.77;1764038;78;21125;-74
2021/04/29 09:19:21;;;;;;;14.47;5.17;;;;;;;15.39;40.67;99637.01;1775882;78;21094;-74
2021/04/29 09:21:49;;;;;;;29.65;5.75;;;;;;;15.32;41.63;99636.74;1803372;79;21705;-74
2021/04/29 09:24:16;;;;;;;11.30;5.10;;;;;;;15.32;40.96;99626.09;1781695;79;21487;-74
2021/04/29 09:26:43;;;;;;;8.03;5.20;;;;;;;15.19;41.12;99629.52;1788735;78;21151;-74
2021/04/29 09:32:10;;;;;;;7.25;4.37;;;;;;;15.11;40.92;99615.56;1793309;78;22349;-73
2021/04/29 09:34:41;;;;;;;26.77;6.62;;;;;;;14.96;40.86;99608.98;1728133;80;21146;-73
2021/04/29 09:37:08;;;;;;;6.37;3.90;;;;;;;14.96;42.41;99618.30;1779542;79;21318;-73
2021/04/29 09:39:37;;;;;;;8.18;4.35;;;;;;;15.11;41.27;99600.92;1737871;80;21304;-73
2021/04/29 09:42:04;;;;;;;7.87;4.45;;;;;;;15.23;41.57;99598.97;1702035;82;21642;-74
2021/04/29 09:44:34;;;;;;;6.40;4.55;;;;;;;15.37;40.98;99602.99;1731590;81;21178;-73
2021/04/29 09:47:08;;;;;;;6.75;4.25;;;;;;;15.39;40.72;99607.20;1742710;81;21170;-73
2021/04/29 09:49:38;;;;;;;41.20;7.20;;;;;;;15.44;41.07;99597.45;1724555;81;21331;-73
2021/04/29 09:52:24;;;;;;;6.12;4.05;;;;;;;15.53;41.06;99599.25;1732048;81;21633;-74
2021/04/29 09:54:53;;;;;;;7.60;4.00;;;;;;;15.59;40.28;99592.99;1730197;81;21552;-74
2021/04/29 09:57:27;;;;;;;9.60;4.85;;;;;;;15.62;40.88;99595.39;1713401;81;21205;-74
2021/04/29 09:59:59;;;;;;;10.40;4.70;;;;;;;15.64;40.84;99588.06;1695478;83;21186;-74
2021/04/29 10:02:28;;;;;;;6.90;4.60;;;;;;;15.69;41.01;99585.80;1706452;81;21185;-74
2021/04/29 10:04:56;;;;;;;8.48;5.10;;;;;;;15.83;41.81;99588.53;1721424;82;21130;-74
2021/04/29 10:07:23;;;;;;;10.23;5.03;;;;;;;15.99;41.35;99578.59;1711732;83;21277;-72
2021/04/29 10:09:51;;;;;;;10.15;4.55;;;;;;;16.10;40.88;99578.41;1709442;83;21154;-75
2021/04/29 10:12:21;;;;;;;9.15;4.95;;;;;;;16.19;41.01;99578.02;1708175;82;21154;-74
2021/04/29 10:14:51;;;;;;;7.28;5.45;;;;;;;16.26;40.12;99578.25;1695976;83;21320;-74
2021/04/29 10:17:20;;;;;;;8.28;5.28;;;;;;;16.22;40.34;99569.19;1700102;82;21174;-73
2021/04/29 10:19:54;;;;;;;8.38;4.50;;;;;;;16.16;39.76;99567.14;1718904;82;22238;-73
2021/04/29 10:22:25;;;;;;;7.25;4.85;;;;;;;16.12;40.77;99571.58;1720374;81;21130;-73
2021/04/29 10:24:52;;;;;;;6.58;4.55;;;;;;;16.07;39.78;99572.01;1720891;83;21618;-73
2021/04/29 10:27:25;;;;;;;13.93;5.05;;;;;;;15.97;39.94;99556.08;1711831;81;21190;-73
2021/04/29 10:30:08;;;;;;;6.25;4.30;;;;;;;15.83;40.21;99568.06;1708730;83;21162;-74
2021/04/29 10:32:37;;;;;;;8.68;5.05;;;;;;;15.78;40.58;99560.96;1710939;82;21222;-74
2021/04/29 10:35:21;;;;;;;6.78;4.47;;;;;;;15.81;40.18;99549.16;1734398;81;21356;-74
2021/04/29 10:38:01;;;;;;;7.72;4.72;;;;;;;15.93;39.94;99552.00;1711488;82;21303;-74
2021/04/29 10:40:38;;;;;;;7.65;4.83;;;;;;;15.94;40.47;99544.86;1709057;82;21130;-75
2021/04/29 10:43:06;;;;;;;6.42;4.45;;;;;;;15.94;39.39;99544.86;1714629;82;21138;-75
2021/04/29 10:45:33;;;;;;;18.95;5.05;;;;;;;15.98;39.75;99543.06;1714071;81;21316;-75
2021/04/29 10:48:09;;;;;;;7.60;4.40;;;;;;;16.07;39.24;99547.17;1708641;82;21213;-75
2021/04/29 10:50:48;;;;;;;9.83;4.22;;;;;;;16.10;38.14;99538.39;1743053;80;21316;-75
2021/04/29 10:53:33;;;;;;;7.47;4.97;;;;;;;16.07;37.92;99536.00;1744113;80;21777;-75
2021/04/29 10:56:08;;;;;;;7.20;4.90;;;;;;;16.08;38.02;99531.02;1729943;81;21813;-76
2021/04/29 10:58:35;;;;;;;8.80;4.80;;;;;;;16.09;38.40;99539.38;1750995;81;21173;-75
2021/04/29 11:01:31;;;;;;;101.87;10.15;;;;;;;16.16;38.42;99531.13;1742767;81;21329;-74
2021/04/29 11:04:02;;;;;;;6.75;5.12;;;;;;;16.24;38.44;99530.86;1723826;81;21224;-75
2021/04/29 11:06:30;;;;;;;12.13;9.65;;;;;;;16.26;38.76;99530.22;1698572;82;21213;-75
2021/04/29 11:08:59;;;;;;;9.88;7.60;;;;;;;16.22;39.23;99526.50;1721203;82;21314;-75
2021/04/29 11:11:36;;;;;;;7.40;5.12;;;;;;;16.30;39.93;99541.76;1733802;81;21594;-72
2021/04/29 11:14:08;;;;;;;6.67;4.92;;;;;;;16.41;39.36;99543.87;1732631;81;21947;-73
2021/04/29 11:16:46;;;;;;;14.20;5.15;;;;;;;16.42;39.13;99526.39;1748532;81;21218;-73
2021/04/29 11:19:50;;;;;;;11.78;5.25;;;;;;;16.40;40.07;99524.36;1728020;81;21363;-73
2021/04/29 11:22:34;;;;;;;9.93;5.67;;;;;;;16.41;39.70;99529.19;1734897;81;21209;-74
2021/04/29 11:25:02;;;;;;;7.58;5.15;;;;;;;16.35;40.27;99527.98;1728902;81;21221;-73
2021/04/29 11:27:35;;;;;;;7.83;5.12;;;;;;;16.38;39.67;99534.33;1742480;81;21343;-74
2021/04/29 11:30:13;;;;;;;20.35;5.65;;;;;;;16.41;40.32;99523.85;1701321;82;21394;-74
2021/04/29 11:32:43;;;;;;;9.75;5.72;;;;;;;16.48;40.34;99529.80;1726921;81;21346;-74
2021/04/29 11:35:20;;;;;;;5.80;5.17;;;;;;;16.50;39.23;99515.78;1717916;82;21355;-74
2021/04/29 11:37:48;;;;;;;6.58;5.50;;;;;;;16.38;39.21;99522.33;1732933;81;21220;-73
2021/04/29 11:40:16;;;;;;;6.58;5.00;;;;;;;16.24;40.26;99517.04;1731595;80;21262;-74
2021/04/29 11:42:52;;;;;;;6.83;4.92;;;;;;;16.25;40.36;99516.53;1752098;81;21319;-73
2021/04/29 11:45:23;;;;;;;8.33;5.15;;;;;;;16.32;40.72;99505.61;1752630;81;21649;-74
2021/04/29 11:48:02;;;;;;;8.18;4.92;;;;;;;16.37;40.37;99497.98;1736563;81;21144;-74